Main page
METAR-TAF:

METAR-TAF

Airports :

Naval Station Rota

Rota, Spain

latitude: 36-39N, longitude: 006-21W, elevation: 26 m

Current weather observation

The report was made 38 minutes ago, at 20:00 UTC
Wind 5 kt from the East
Temperature 11°C
Humidity 76%
Pressure 1022 hPa
Visibility 10 km or more
no clouds below 1500 m and no cumulonimbus

METAR: LERT 212000Z 09005KT CAVOK 11/07 Q1022 NOSIG

Time: 21:38 (20:38 UTC)

Forecast

The report was made 6 hours and 38 minutes ago, at 14:00 UTC
Forecast valid from 21 at 15 UTC to 22 at 15 UTC
Wind 6 kt from the East/Northeast
Visibility 10 km or more
no clouds below 1500 m and no cumulonimbus
Becoming
from 22 at 10 UTC to 22 at 12 UTC
Wind 12 kt from the East/Southeast

TAF: LERT 211400Z 2115/2215 06006KT CAVOK TX16/2115Z TN04/2207Z BECMG 2210/2212 12012KT

Weather observations and forecasts of more than 4000 airports (METAR and TAF reports).

The available stations are represented by yellow and red dots on the map.

Hover mouse over dot to see the name of the station.

Then click to see weather observations and forecasts.

To change the map : click on the green buttons with a black cross to zoom in, on the green button with a dash to zoom out, or on the green arrows for adjacent maps.


METAR-TAF: